createdAt,value
2022-12-14T00:01:25.120Z,99614.31
2022-12-14T00:03:52.386Z,99607.56
2022-12-14T00:06:24.399Z,99600.72
2022-12-14T00:08:52.816Z,99595.72
2022-12-14T00:11:19.984Z,99593.41
2022-12-14T00:13:48.975Z,99593.53
2022-12-14T00:16:18.292Z,99585.25
2022-12-14T00:18:49.952Z,99584.59
2022-12-14T00:21:16.621Z,99578.41
2022-12-14T00:23:44.899Z,99574.75
2022-12-14T00:26:14.939Z,99583.69
2022-12-14T00:28:42.696Z,99578.06
2022-12-14T00:31:10.048Z,99580.84
2022-12-14T00:33:37.632Z,99585.03
2022-12-14T00:36:05.851Z,99583.81
2022-12-14T00:38:32.665Z,99578.38
2022-12-14T00:40:59.413Z,99577.06
2022-12-14T00:43:26.279Z,99574.41
2022-12-14T00:45:53.455Z,99584.00
2022-12-14T00:48:21.636Z,99582.75
2022-12-14T00:50:49.751Z,99580.56
2022-12-14T00:53:17.127Z,99577.03
2022-12-14T00:55:49.204Z,99573.00
2022-12-14T00:58:19.721Z,99578.19
2022-12-14T01:00:48.509Z,99576.94
2022-12-14T01:03:15.867Z,99573.22
2022-12-14T01:05:45.282Z,99576.28
2022-12-14T01:08:16.195Z,99578.50
2022-12-14T01:10:43.170Z,99574.09
2022-12-14T01:13:11.635Z,99575.66
2022-12-14T01:15:38.561Z,99569.19
2022-12-14T01:18:05.537Z,99574.81
2022-12-14T01:20:32.262Z,99567.47
2022-12-14T01:23:02.128Z,99571.78
2022-12-14T01:25:31.549Z,99576.41
2022-12-14T01:27:58.132Z,99574.63
2022-12-14T01:30:25.123Z,99573.22
2022-12-14T01:32:51.712Z,99568.03
2022-12-14T01:35:18.275Z,99564.22
2022-12-14T01:37:44.895Z,99560.50
2022-12-14T01:40:15.650Z,99562.94
2022-12-14T01:42:42.214Z,99566.00
2022-12-14T01:45:18.724Z,99556.38
2022-12-14T01:47:53.804Z,99547.84
2022-12-14T01:50:34.942Z,99556.44
2022-12-14T01:53:28.563Z,99549.78
2022-12-14T01:55:56.680Z,99539.63
2022-12-14T01:58:26.780Z,99543.06
2022-12-14T02:00:56.930Z,99555.66
2022-12-14T02:03:31.430Z,99548.16
2022-12-14T02:06:06.154Z,99553.22
2022-12-14T02:08:33.368Z,99537.00
2022-12-14T02:11:02.574Z,99541.84
2022-12-14T02:13:32.628Z,99536.50
2022-12-14T02:15:59.677Z,99528.75
2022-12-14T02:18:29.814Z,99532.94
2022-12-14T02:21:06.239Z,99527.56
2022-12-14T02:24:07.918Z,99533.75
2022-12-14T02:27:10.842Z,99532.94
2022-12-14T02:29:45.622Z,99532.69
2022-12-14T02:32:52.272Z,99541.84
2022-12-14T02:35:31.795Z,99529.78
2022-12-14T02:38:17.917Z,99525.50
2022-12-14T02:41:02.857Z,99525.25
2022-12-14T02:43:49.377Z,99532.00
2022-12-14T02:46:25.236Z,99520.44
2022-12-14T02:49:14.899Z,99522.88
2022-12-14T02:51:54.915Z,99515.13
2022-12-14T02:54:30.065Z,99514.00
2022-12-14T02:57:08.600Z,99518.97
2022-12-14T02:59:36.094Z,99512.94
2022-12-14T03:02:04.833Z,99509.63
2022-12-14T03:04:31.723Z,99508.09
2022-12-14T03:07:22.695Z,99514.91
2022-12-14T03:09:49.393Z,99509.84
2022-12-14T03:12:18.034Z,99513.78
2022-12-14T03:14:50.777Z,99512.91
2022-12-14T03:17:21.289Z,99510.69
2022-12-14T03:20:01.060Z,99504.50
2022-12-14T03:22:33.805Z,99502.88
2022-12-14T03:25:13.016Z,99503.28
2022-12-14T03:27:46.513Z,99500.50
2022-12-14T03:30:23.725Z,99501.22
2022-12-14T03:33:09.301Z,99498.94
2022-12-14T03:35:45.936Z,99496.16
2022-12-14T03:38:22.930Z,99498.47
2022-12-14T03:40:52.404Z,99490.31
2022-12-14T03:43:31.876Z,99492.75
2022-12-14T03:46:30.922Z,99486.00
2022-12-14T03:49:10.305Z,99485.53
2022-12-14T03:52:01.390Z,99487.28
2022-12-14T03:54:45.383Z,99487.78
2022-12-14T03:57:27.925Z,99483.34
2022-12-14T04:00:18.073Z,99480.97
2022-12-14T04:03:09.976Z,99490.25
2022-12-14T04:05:48.887Z,99482.63
2022-12-14T04:08:36.291Z,99480.56
2022-12-14T04:11:26.049Z,99474.47
2022-12-14T04:14:37.075Z,99469.03
2022-12-14T04:17:31.318Z,99458.88
2022-12-14T04:20:10.387Z,99455.69
2022-12-14T04:22:47.978Z,99447.44
2022-12-14T04:25:42.302Z,99449.06
2022-12-14T04:28:53.106Z,99452.38
2022-12-14T04:31:24.202Z,99447.19
2022-12-14T04:33:54.992Z,99441.84
2022-12-14T04:36:29.963Z,99448.09
2022-12-14T04:39:08.883Z,99442.09
2022-12-14T04:41:38.633Z,99445.88
2022-12-14T04:44:13.626Z,99447.00
2022-12-14T04:46:42.341Z,99450.53
2022-12-14T04:49:31.951Z,99453.97
2022-12-14T04:52:24.575Z,99449.38
2022-12-14T04:55:08.879Z,99445.56
2022-12-14T04:57:47.380Z,99444.72
2022-12-14T05:00:14.791Z,99433.53
2022-12-14T05:03:11.318Z,99433.66
2022-12-14T05:05:50.731Z,99430.34
2022-12-14T05:08:42.810Z,99421.72
2022-12-14T05:11:41.326Z,99436.88
2022-12-14T05:14:01.066Z,99430.69
2022-12-14T05:16:27.783Z,99427.38
2022-12-14T05:18:54.425Z,99429.59
2022-12-14T05:21:39.510Z,99418.00
2022-12-14T05:24:07.294Z,99421.63
2022-12-14T05:26:34.301Z,99412.59
2022-12-14T05:29:00.880Z,99413.94
2022-12-14T05:31:27.468Z,99423.44
2022-12-14T05:33:54.035Z,99415.16
2022-12-14T05:36:20.663Z,99415.38
2022-12-14T05:38:47.628Z,99407.22
2022-12-14T05:41:15.074Z,99406.88
2022-12-14T05:43:41.897Z,99404.91
2022-12-14T05:46:11.676Z,99397.81
2022-12-14T05:48:38.309Z,99398.34
2022-12-14T05:51:10.154Z,99391.50
2022-12-14T05:53:37.831Z,99393.38
2022-12-14T05:56:06.217Z,99392.84
2022-12-14T05:58:34.629Z,99399.06
2022-12-14T06:01:04.087Z,99395.84
2022-12-14T06:03:31.249Z,99389.25
2022-12-14T06:06:05.557Z,99397.38
2022-12-14T06:08:37.583Z,99391.78
2022-12-14T06:11:08.956Z,99391.00
2022-12-14T06:13:36.811Z,99388.34
2022-12-14T06:16:17.820Z,99389.44
2022-12-14T06:18:50.364Z,99385.94
2022-12-14T06:21:19.296Z,99393.19
2022-12-14T06:23:46.426Z,99394.16
2022-12-14T06:26:14.242Z,99390.53
2022-12-14T06:28:41.015Z,99386.06
2022-12-14T06:31:08.400Z,99382.13
2022-12-14T06:33:35.925Z,99380.56
2022-12-14T06:36:03.152Z,99381.47
2022-12-14T06:38:30.038Z,99374.63
2022-12-14T06:40:56.666Z,99369.59
2022-12-14T06:43:30.001Z,99368.38
2022-12-14T06:45:57.291Z,99369.13
2022-12-14T06:48:23.936Z,99354.66
2022-12-14T06:50:51.734Z,99367.47
2022-12-14T06:53:18.419Z,99370.78
2022-12-14T06:55:45.028Z,99368.13
2022-12-14T06:58:15.916Z,99363.94
2022-12-14T07:00:42.569Z,99362.88
2022-12-14T07:03:10.212Z,99365.16
2022-12-14T07:05:37.168Z,99360.22
2022-12-14T07:08:05.283Z,99366.44
2022-12-14T07:10:31.953Z,99362.13
2022-12-14T07:12:58.558Z,99362.66
2022-12-14T07:15:25.160Z,99358.16
2022-12-14T07:17:51.803Z,99347.78
2022-12-14T07:20:18.726Z,99354.31
2022-12-14T07:22:49.252Z,99347.34
2022-12-14T07:25:16.126Z,99345.59
2022-12-14T07:27:42.692Z,99339.41
2022-12-14T07:30:09.928Z,99337.63
2022-12-14T07:32:36.526Z,99342.72
2022-12-14T07:35:03.173Z,99335.72
2022-12-14T07:37:29.816Z,99340.03
2022-12-14T07:39:56.412Z,99337.72
2022-12-14T07:42:23.014Z,99331.28
2022-12-14T07:44:49.638Z,99330.06
2022-12-14T07:47:16.842Z,99325.50
2022-12-14T07:49:44.057Z,99329.56
2022-12-14T07:52:11.392Z,99326.44
2022-12-14T07:54:38.026Z,99331.56
2022-12-14T07:57:04.696Z,99325.41
2022-12-14T07:59:34.475Z,99327.22
2022-12-14T08:02:01.271Z,99323.31
2022-12-14T08:04:28.047Z,99319.03
2022-12-14T08:06:59.109Z,99318.84
2022-12-14T08:09:25.760Z,99321.59
2022-12-14T08:11:52.351Z,99318.97
2022-12-14T08:14:19.789Z,99314.91
2022-12-14T08:16:49.580Z,99327.38
2022-12-14T08:19:17.891Z,99329.44
2022-12-14T08:21:45.989Z,99320.50
2022-12-14T08:24:13.663Z,99321.44
2022-12-14T08:26:40.325Z,99317.56
2022-12-14T08:29:07.009Z,99308.88
2022-12-14T08:31:34.011Z,99317.50
2022-12-14T08:34:01.986Z,99319.41
2022-12-14T08:36:30.883Z,99317.50
2022-12-14T08:39:03.440Z,99318.38
2022-12-14T08:41:30.341Z,99321.38
2022-12-14T08:43:59.311Z,99317.50
2022-12-14T08:46:28.196Z,99319.47
2022-12-14T08:48:55.878Z,99315.31
2022-12-14T08:51:23.948Z,99307.63
2022-12-14T08:53:51.508Z,99311.78
2022-12-14T08:56:21.534Z,99305.44
2022-12-14T08:58:48.871Z,99303.84
2022-12-14T09:01:30.323Z,99313.47
2022-12-14T09:04:08.967Z,99319.97
2022-12-14T09:06:38.885Z,99301.59
2022-12-14T09:09:13.314Z,99308.75
2022-12-14T09:11:42.009Z,99304.34
2022-12-14T09:14:10.867Z,99296.16
2022-12-14T09:16:40.395Z,99290.63
2022-12-14T09:19:07.234Z,99292.72
2022-12-14T09:21:34.174Z,99295.44
2022-12-14T09:24:01.489Z,99284.00
2022-12-14T09:26:28.585Z,99274.81
2022-12-14T09:28:57.216Z,99272.75
2022-12-14T09:31:25.707Z,99266.47
2022-12-14T09:33:52.752Z,99259.06
2022-12-14T09:36:22.072Z,99261.34
2022-12-14T09:38:55.308Z,99253.75
2022-12-14T09:41:34.757Z,99249.22
2022-12-14T09:44:25.034Z,99241.09
2022-12-14T09:47:17.204Z,99229.81
2022-12-14T09:49:54.405Z,99231.97
2022-12-14T09:52:26.562Z,99226.34
2022-12-14T09:54:55.433Z,99215.94
2022-12-14T09:57:34.405Z,99220.44
2022-12-14T10:00:01.220Z,99220.97
2022-12-14T10:03:04.523Z,99222.75
2022-12-14T10:05:57.191Z,99215.50
2022-12-14T10:08:26.974Z,99210.66
2022-12-14T10:11:07.444Z,99198.25
2022-12-14T10:14:09.767Z,99198.94
2022-12-14T10:16:49.950Z,99194.84
2022-12-14T10:19:35.205Z,99192.25
2022-12-14T10:22:12.446Z,99184.19
2022-12-14T10:25:10.522Z,99167.78
2022-12-14T10:28:09.155Z,99161.91
2022-12-14T10:30:25.260Z,99167.34
2022-12-14T10:32:57.273Z,99167.25
2022-12-14T10:35:43.478Z,99167.59
2022-12-14T10:38:45.013Z,99170.63
2022-12-14T10:41:27.998Z,99157.41
2022-12-14T10:43:59.169Z,99148.28
2022-12-14T10:46:51.661Z,99137.81
2022-12-14T10:49:50.524Z,99132.25
2022-12-14T10:52:23.599Z,99132.97
2022-12-14T10:54:54.421Z,99128.56
2022-12-14T10:57:26.430Z,99134.91
2022-12-14T11:00:07.793Z,99123.69
2022-12-14T11:02:41.717Z,99112.25
2022-12-14T11:05:41.571Z,99108.00
2022-12-14T11:08:09.064Z,99095.19
2022-12-14T11:10:39.738Z,99091.97
2022-12-14T11:13:16.700Z,99094.19
2022-12-14T11:15:48.704Z,99087.84
2022-12-14T11:18:15.511Z,99086.97
2022-12-14T11:21:02.426Z,99086.78
2022-12-14T11:23:40.661Z,99074.94
2022-12-14T11:26:13.487Z,99070.00
2022-12-14T11:28:49.889Z,99061.31
2022-12-14T11:31:40.192Z,99062.66
2022-12-14T11:34:22.287Z,99036.75
2022-12-14T11:36:50.207Z,99056.47
2022-12-14T11:39:22.802Z,99053.19
2022-12-14T11:41:52.369Z,99052.97
2022-12-14T11:44:18.944Z,99047.28
2022-12-14T11:46:58.004Z,99029.22
2022-12-14T11:49:35.137Z,99020.97
2022-12-14T11:52:04.722Z,99024.41
2022-12-14T11:54:50.181Z,99017.66
2022-12-14T11:57:57.572Z,99012.69
2022-12-14T12:00:30.875Z,99010.16
2022-12-14T12:03:23.718Z,99006.56
2022-12-14T12:05:52.560Z,99007.75
2022-12-14T12:08:24.686Z,99006.84
2022-12-14T12:10:54.401Z,99008.09
2022-12-14T12:13:28.503Z,98987.72
2022-12-14T12:15:59.340Z,98988.41
2022-12-14T12:18:47.073Z,98978.34
2022-12-14T12:21:26.446Z,98966.19
2022-12-14T12:24:15.680Z,98968.44
2022-12-14T12:26:54.813Z,98954.50
2022-12-14T12:29:48.967Z,98949.19
2022-12-14T12:32:37.873Z,98940.06
2022-12-14T12:35:18.912Z,98929.44
2022-12-14T12:37:57.392Z,98927.13
2022-12-14T12:41:00.718Z,98919.44
2022-12-14T12:43:50.179Z,98918.06
2022-12-14T12:47:14.975Z,98918.72
2022-12-14T12:49:32.807Z,98913.00
2022-12-14T12:52:06.586Z,98901.59
2022-12-14T12:54:40.206Z,98906.97
2022-12-14T12:57:11.968Z,98913.97
2022-12-14T12:59:45.456Z,98911.00
2022-12-14T13:02:30.639Z,98915.38
2022-12-14T13:05:16.682Z,98911.66
2022-12-14T13:07:53.069Z,98914.34
2022-12-14T13:10:25.420Z,98902.88
2022-12-14T13:13:18.417Z,98894.25
2022-12-14T13:15:50.539Z,98890.78
2022-12-14T13:18:59.180Z,98882.72
2022-12-14T13:21:36.622Z,98876.88
2022-12-14T13:24:06.290Z,98876.38
2022-12-14T13:30:13.649Z,98864.03
2022-12-14T13:32:40.210Z,98865.22
2022-12-14T13:35:30.059Z,98861.94
2022-12-14T13:38:00.723Z,98850.03
2022-12-14T13:40:50.271Z,98853.22
2022-12-14T13:43:35.675Z,98854.16
2022-12-14T13:46:11.776Z,98862.53
2022-12-14T13:48:40.048Z,98864.09
2022-12-14T13:51:09.107Z,98863.38
2022-12-14T13:53:42.028Z,98870.28
2022-12-14T13:56:09.981Z,98868.63
2022-12-14T13:58:42.248Z,98865.19
2022-12-14T14:01:15.699Z,98874.59
2022-12-14T14:03:44.094Z,98862.34
2022-12-14T14:06:29.356Z,98852.97
2022-12-14T14:08:55.994Z,98854.69
2022-12-14T14:11:36.904Z,98844.56
2022-12-14T14:14:04.674Z,98825.34
2022-12-14T14:16:42.838Z,98818.13
2022-12-14T14:19:09.480Z,98819.59
2022-12-14T14:22:22.169Z,98831.53
2022-12-14T14:24:58.513Z,98819.41
2022-12-14T14:27:32.765Z,98824.28
2022-12-14T14:29:59.510Z,98826.59
2022-12-14T14:32:33.273Z,98820.31
2022-12-14T14:35:06.619Z,98818.66
2022-12-14T14:37:38.915Z,98811.66
2022-12-14T14:40:38.282Z,98803.34
2022-12-14T14:43:32.530Z,98800.44
2022-12-14T14:46:05.885Z,98803.72
2022-12-14T14:48:53.163Z,98808.56
2022-12-14T14:51:25.570Z,98815.88
2022-12-14T14:54:46.149Z,98820.19
2022-12-14T14:57:56.110Z,98807.09
2022-12-14T15:00:25.568Z,98816.59
2022-12-14T15:02:54.621Z,98812.22
2022-12-14T15:05:41.998Z,98807.03
2022-12-14T15:08:19.130Z,98797.50
2022-12-14T15:10:46.996Z,98813.00
2022-12-14T15:13:24.489Z,98809.59
2022-12-14T15:15:53.619Z,98802.72
2022-12-14T15:18:30.705Z,98805.94
2022-12-14T15:21:04.294Z,98805.00
2022-12-14T15:23:43.252Z,98796.31
2022-12-14T15:26:34.184Z,98789.44
2022-12-14T15:29:02.456Z,98780.94
2022-12-14T15:31:41.997Z,98774.00
2022-12-14T15:34:16.506Z,98772.94
2022-12-14T15:36:44.298Z,98760.84
2022-12-14T15:39:40.808Z,98749.72
2022-12-14T15:42:15.291Z,98739.53
2022-12-14T15:44:55.153Z,98743.78
2022-12-14T15:47:32.015Z,98740.09
2022-12-14T15:50:15.743Z,98736.38
2022-12-14T15:52:45.664Z,98719.13
2022-12-14T15:55:31.382Z,98720.88
2022-12-14T15:58:10.742Z,98720.75
2022-12-14T16:00:42.782Z,98723.41
2022-12-14T16:03:40.304Z,98722.66
2022-12-14T16:06:09.408Z,98723.63
2022-12-14T16:08:38.654Z,98724.44
2022-12-14T16:11:15.425Z,98721.00
2022-12-14T16:13:46.246Z,98708.97
2022-12-14T16:16:14.483Z,98703.00
2022-12-14T16:18:50.897Z,98708.25
2022-12-14T16:21:32.220Z,98713.34
2022-12-14T16:24:02.386Z,98709.94
2022-12-14T16:26:33.534Z,98698.78
2022-12-14T16:29:22.850Z,98707.41
2022-12-14T16:31:49.988Z,98705.72
2022-12-14T16:34:23.604Z,98714.31
2022-12-14T16:37:14.627Z,98707.41
2022-12-14T16:39:40.116Z,98697.25
2022-12-14T16:42:18.498Z,98700.78
2022-12-14T16:44:47.780Z,98698.22
2022-12-14T16:47:17.271Z,98697.41
2022-12-14T16:49:50.441Z,98711.25
2022-12-14T16:52:21.363Z,98707.78
2022-12-14T16:55:10.786Z,98704.41
2022-12-14T16:57:41.512Z,98699.22
2022-12-14T17:00:19.207Z,98704.41
2022-12-14T17:03:03.841Z,98704.25
2022-12-14T17:05:39.675Z,98705.31
2022-12-14T17:08:07.893Z,98691.59
2022-12-14T17:10:34.849Z,98703.53
2022-12-14T17:13:03.021Z,98710.53
2022-12-14T17:15:32.820Z,98704.53
2022-12-14T17:18:02.133Z,98701.13
2022-12-14T17:20:31.216Z,98695.09
2022-12-14T17:23:01.938Z,98694.13
2022-12-14T17:25:31.573Z,98694.91
2022-12-14T17:28:00.278Z,98701.06
2022-12-14T17:30:26.988Z,98693.44
2022-12-14T17:32:55.051Z,98689.22
2022-12-14T17:35:29.815Z,98694.47
2022-12-14T17:37:56.944Z,98690.28
2022-12-14T17:40:24.762Z,98682.56
2022-12-14T17:42:53.542Z,98689.44
2022-12-14T17:45:26.580Z,98685.25
2022-12-14T17:47:54.552Z,98684.28
2022-12-14T17:50:21.886Z,98688.59
2022-12-14T17:52:50.531Z,98675.72
2022-12-14T17:55:18.429Z,98669.69
2022-12-14T17:57:45.732Z,98673.94
2022-12-14T18:00:36.890Z,98672.97
2022-12-14T18:03:07.708Z,98678.78
2022-12-14T18:05:34.493Z,98668.44
2022-12-14T18:08:01.094Z,98670.97
2022-12-14T18:10:28.255Z,98672.59
2022-12-14T18:12:55.647Z,98666.25
2022-12-14T18:15:27.953Z,98662.97
2022-12-14T18:17:55.252Z,98666.38
2022-12-14T18:20:24.100Z,98660.28
2022-12-14T18:22:51.309Z,98668.00
2022-12-14T18:25:35.987Z,98666.22
2022-12-14T18:28:04.868Z,98667.81
2022-12-14T18:30:39.513Z,98670.38
2022-12-14T18:33:15.897Z,98670.34
2022-12-14T18:35:44.163Z,98671.25
2022-12-14T18:38:10.954Z,98666.06
2022-12-14T18:40:38.486Z,98648.88
2022-12-14T18:43:05.150Z,98663.44
2022-12-14T18:45:34.738Z,98659.94
2022-12-14T18:48:01.730Z,98663.38
2022-12-14T18:50:29.051Z,98662.44
2022-12-14T18:52:56.053Z,98653.88
2022-12-14T18:55:31.963Z,98659.88
2022-12-14T18:58:02.071Z,98659.03
2022-12-14T19:00:33.748Z,98662.34
2022-12-14T19:03:02.483Z,98661.47
2022-12-14T19:05:30.666Z,98656.28
2022-12-14T19:07:58.872Z,98658.75
2022-12-14T19:10:28.984Z,98648.56
2022-12-14T19:12:56.512Z,98652.81
2022-12-14T19:15:28.735Z,98650.09
2022-12-14T19:17:56.120Z,98648.47
2022-12-14T19:20:23.756Z,98645.78
2022-12-14T19:22:51.026Z,98654.31
2022-12-14T19:25:22.162Z,98645.72
2022-12-14T19:30:37.117Z,98644.88
2022-12-14T19:33:04.058Z,98644.81
2022-12-14T19:35:31.929Z,98640.53
2022-12-14T19:37:58.671Z,98639.78
2022-12-14T19:40:26.313Z,98634.63
2022-12-14T19:42:52.994Z,98625.09
2022-12-14T19:45:19.747Z,98627.84
2022-12-14T19:47:46.509Z,98623.53
2022-12-14T19:50:14.885Z,98625.19
2022-12-14T19:52:42.080Z,98638.13
2022-12-14T19:55:10.467Z,98637.94
2022-12-14T19:57:38.699Z,98640.22
2022-12-14T20:00:07.590Z,98642.78
2022-12-14T20:02:34.385Z,98641.84
2022-12-14T20:05:01.213Z,98636.69
2022-12-14T20:07:27.844Z,98646.13
2022-12-14T20:09:54.530Z,98650.25
2022-12-14T20:12:21.108Z,98647.63
2022-12-14T20:14:49.430Z,98657.06
2022-12-14T20:17:16.692Z,98649.28
2022-12-14T20:19:43.554Z,98665.63
2022-12-14T20:22:10.264Z,98657.84
2022-12-14T20:24:37.189Z,98655.25
2022-12-14T20:27:04.079Z,98668.91
2022-12-14T20:29:30.831Z,98669.69
2022-12-14T20:31:57.950Z,98668.75
2022-12-14T20:34:24.699Z,98665.38
2022-12-14T20:36:51.280Z,98660.06
2022-12-14T20:39:17.956Z,98661.00
2022-12-14T20:41:44.520Z,98664.41
2022-12-14T20:44:12.135Z,98665.13
2022-12-14T20:46:42.977Z,98654.16
2022-12-14T20:49:12.817Z,98652.78
2022-12-14T20:51:39.980Z,98656.34
2022-12-14T20:54:09.030Z,98657.03
2022-12-14T20:56:36.667Z,98656.22
2022-12-14T20:59:03.882Z,98657.94
2022-12-14T21:01:30.781Z,98665.53
2022-12-14T21:04:00.784Z,98662.00
2022-12-14T21:06:27.583Z,98657.03
2022-12-14T21:09:09.416Z,98656.97
2022-12-14T21:12:00.552Z,98651.69
2022-12-14T21:14:32.452Z,98659.13
2022-12-14T21:17:00.190Z,98661.00
2022-12-14T21:19:27.808Z,98659.25
2022-12-14T21:21:54.517Z,98656.84
2022-12-14T21:25:00.980Z,98656.06
2022-12-14T21:27:15.021Z,98654.44
2022-12-14T21:29:41.752Z,98654.44
2022-12-14T21:32:08.828Z,98655.25
2022-12-14T21:34:36.584Z,98650.91
2022-12-14T21:37:03.222Z,98655.16
2022-12-14T21:39:29.914Z,98655.09
2022-12-14T21:42:15.611Z,98660.47
2022-12-14T21:44:44.696Z,98656.22
2022-12-14T21:47:15.656Z,98662.31
2022-12-14T21:49:44.304Z,98656.41
2022-12-14T21:52:16.829Z,98661.56
2022-12-14T21:54:43.743Z,98665.84
2022-12-14T21:57:35.092Z,98660.72
2022-12-14T22:00:01.760Z,98657.44
2022-12-14T22:02:29.539Z,98655.81
2022-12-14T22:04:56.498Z,98658.38
2022-12-14T22:07:30.810Z,98653.19
2022-12-14T22:09:57.597Z,98653.84
2022-12-14T22:12:24.430Z,98658.91
2022-12-14T22:14:51.809Z,98664.88
2022-12-14T22:17:18.393Z,98659.81
2022-12-14T22:19:44.975Z,98661.50
2022-12-14T22:22:15.733Z,98677.81
2022-12-14T22:24:43.014Z,98671.94
2022-12-14T22:27:12.987Z,98676.19
2022-12-14T22:29:39.934Z,98671.94
2022-12-14T22:32:07.363Z,98676.19
2022-12-14T22:34:34.466Z,98666.75
2022-12-14T22:37:01.309Z,98668.25
2022-12-14T22:39:27.952Z,98672.47
2022-12-14T22:41:54.575Z,98676.72
2022-12-14T22:44:21.184Z,98674.09
2022-12-14T22:46:47.898Z,98679.25
2022-12-14T22:49:19.210Z,98677.44
2022-12-14T22:51:46.449Z,98674.63
2022-12-14T22:54:21.014Z,98678.81
2022-12-14T22:56:52.921Z,98674.56
2022-12-14T22:59:25.235Z,98676.94
2022-12-14T23:01:52.091Z,98670.84
2022-12-14T23:04:21.148Z,98667.25
2022-12-14T23:06:47.989Z,98667.97
2022-12-14T23:09:33.242Z,98672.88
2022-12-14T23:12:21.903Z,98676.06
2022-12-14T23:15:07.858Z,98675.75
2022-12-14T23:17:53.813Z,98676.63
2022-12-14T23:20:39.086Z,98683.50
2022-12-14T23:23:25.678Z,98675.94
2022-12-14T23:26:10.990Z,98680.34
2022-12-14T23:28:56.849Z,98673.56
2022-12-14T23:31:41.695Z,98675.38
2022-12-14T23:34:27.449Z,98677.94
2022-12-14T23:37:19.770Z,98674.56
2022-12-14T23:40:05.590Z,98673.81
2022-12-14T23:42:50.642Z,98691.09
2022-12-14T23:45:35.909Z,98697.19
2022-12-14T23:48:21.350Z,98693.84
2022-12-14T23:51:08.690Z,98695.66
2022-12-14T23:53:53.563Z,98706.97
2022-12-14T23:56:38.798Z,98703.91
2022-12-14T23:59:27.985Z,98694.97
